createdAt,value
2019-02-14T00:02:16.080Z,967.26
2019-02-14T00:04:42.391Z,967.27
2019-02-14T00:07:08.705Z,967.33
2019-02-14T00:09:35.025Z,967.38
2019-02-14T00:12:01.336Z,967.35
2019-02-14T00:14:27.642Z,967.26
2019-02-14T00:16:53.945Z,967.31
2019-02-14T00:19:20.252Z,967.26
2019-02-14T00:21:46.577Z,967.25
2019-02-14T00:24:12.880Z,967.21
2019-02-14T00:26:39.187Z,967.17
2019-02-14T00:29:05.517Z,967.12
2019-02-14T00:31:31.829Z,967.06
2019-02-14T00:33:58.136Z,967.06
2019-02-14T00:36:24.439Z,967.11
2019-02-14T00:38:50.749Z,967.11
2019-02-14T00:41:17.072Z,967.04
2019-02-14T00:43:43.375Z,967.05
2019-02-14T00:46:09.689Z,966.99
2019-02-14T00:48:36.002Z,967.09
2019-02-14T00:51:02.318Z,967.05
2019-02-14T00:53:28.628Z,967.00
2019-02-14T00:55:54.934Z,967.04
2019-02-14T00:58:21.230Z,967.04
2019-02-14T01:00:47.541Z,966.96
2019-02-14T01:03:13.855Z,967.02
2019-02-14T01:05:40.173Z,967.03
2019-02-14T01:08:06.481Z,967.09
2019-02-14T01:10:32.785Z,967.04
2019-02-14T01:12:59.105Z,967.01
2019-02-14T01:15:25.411Z,966.92
2019-02-14T01:17:51.724Z,966.92
2019-02-14T01:20:18.028Z,966.94
2019-02-14T01:22:44.335Z,966.95
2019-02-14T01:25:10.623Z,966.81
2019-02-14T01:27:36.933Z,966.81
2019-02-14T01:30:03.237Z,966.81
2019-02-14T01:32:29.543Z,966.80
2019-02-14T01:34:55.858Z,966.82
2019-02-14T01:37:22.180Z,966.82
2019-02-14T01:39:48.499Z,966.83
2019-02-14T01:42:14.815Z,966.87
2019-02-14T01:44:41.121Z,966.80
2019-02-14T01:47:08.014Z,966.98
2019-02-14T01:49:33.791Z,966.97
2019-02-14T01:52:00.049Z,966.89
2019-02-14T01:54:26.359Z,966.86
2019-02-14T01:56:52.668Z,966.90
2019-02-14T01:59:18.977Z,966.78
2019-02-14T02:01:45.289Z,966.70
2019-02-14T02:04:11.595Z,966.78
2019-02-14T02:06:37.900Z,966.88
2019-02-14T02:09:04.204Z,966.76
2019-02-14T02:11:30.512Z,966.79
2019-02-14T02:13:56.825Z,966.78
2019-02-14T02:16:23.132Z,966.79
2019-02-14T02:18:49.445Z,966.62
2019-02-14T02:21:15.748Z,966.61
2019-02-14T02:23:42.062Z,966.64
2019-02-14T02:26:08.363Z,966.60
2019-02-14T02:28:34.677Z,966.58
2019-02-14T02:31:00.990Z,966.60
2019-02-14T02:33:27.305Z,966.49
2019-02-14T02:36:00.155Z,966.50
2019-02-14T02:38:19.931Z,966.47
2019-02-14T02:40:46.237Z,966.38
2019-02-14T02:43:12.553Z,966.39
2019-02-14T02:45:38.865Z,966.52
2019-02-14T02:48:05.197Z,966.49
2019-02-14T02:50:31.508Z,966.51
2019-02-14T02:52:57.818Z,966.66
2019-02-14T02:55:24.127Z,966.66
2019-02-14T02:57:50.434Z,966.69
2019-02-14T03:00:16.747Z,966.73
2019-02-14T03:02:43.089Z,966.65
2019-02-14T03:05:09.403Z,966.70
2019-02-14T03:07:35.741Z,966.76
2019-02-14T03:10:02.062Z,966.82
2019-02-14T03:12:28.366Z,966.84
2019-02-14T03:14:54.669Z,966.82
2019-02-14T03:17:20.977Z,966.95
2019-02-14T03:19:47.331Z,966.88
2019-02-14T03:22:13.636Z,966.97
2019-02-14T03:24:39.940Z,966.90
2019-02-14T03:27:06.247Z,966.83
2019-02-14T03:29:32.548Z,966.83
2019-02-14T03:31:58.898Z,966.76
2019-02-14T03:34:25.203Z,966.71
2019-02-14T03:36:51.509Z,966.74
2019-02-14T03:39:17.817Z,966.67
2019-02-14T03:41:44.125Z,966.64
2019-02-14T03:44:10.465Z,966.63
2019-02-14T03:46:36.771Z,966.61
2019-02-14T03:49:03.078Z,966.58
2019-02-14T03:51:29.385Z,966.61
2019-02-14T03:53:55.714Z,966.64
2019-02-14T03:56:22.053Z,966.64
2019-02-14T03:58:48.362Z,966.56
2019-02-14T04:01:14.665Z,966.59
2019-02-14T04:03:40.976Z,966.59
2019-02-14T04:06:07.284Z,966.60
2019-02-14T04:08:33.620Z,966.58
2019-02-14T04:10:59.928Z,966.49
2019-02-14T04:13:26.247Z,966.68
2019-02-14T04:15:52.553Z,966.64
2019-02-14T04:18:18.868Z,966.61
2019-02-14T04:20:45.197Z,966.74
2019-02-14T04:23:11.501Z,966.63
2019-02-14T04:25:37.808Z,966.68
2019-02-14T04:28:04.128Z,966.64
2019-02-14T04:30:30.431Z,966.62
2019-02-14T04:32:56.762Z,966.45
2019-02-14T04:35:23.070Z,966.61
2019-02-14T04:37:49.383Z,966.57
2019-02-14T04:40:15.699Z,966.60
2019-02-14T04:42:41.997Z,966.65
2019-02-14T04:45:08.303Z,966.60
2019-02-14T04:47:34.637Z,966.61
2019-02-14T04:50:00.981Z,966.65
2019-02-14T04:52:27.284Z,966.65
2019-02-14T04:54:53.612Z,966.68
2019-02-14T04:57:19.930Z,966.54
2019-02-14T04:59:46.245Z,966.53
2019-02-14T05:02:12.558Z,966.51
2019-02-14T05:04:38.872Z,966.57
2019-02-14T05:07:05.185Z,966.60
2019-02-14T05:09:31.489Z,966.63
2019-02-14T05:11:57.823Z,966.55
2019-02-14T05:14:24.128Z,966.58
2019-02-14T05:16:50.434Z,966.61
2019-02-14T05:19:16.748Z,966.67
2019-02-14T05:21:43.057Z,966.69
2019-02-14T05:24:09.398Z,966.73
2019-02-14T05:26:35.714Z,966.78
2019-02-14T05:29:02.021Z,966.78
2019-02-14T05:31:28.340Z,966.77
2019-02-14T05:33:54.647Z,966.79
2019-02-14T05:36:20.991Z,966.83
2019-02-14T05:38:47.299Z,966.86
2019-02-14T05:41:13.607Z,966.80
2019-02-14T05:43:40.961Z,966.77
2019-02-14T05:46:07.263Z,966.84
2019-02-14T05:48:33.589Z,966.88
2019-02-14T05:50:59.937Z,966.98
2019-02-14T05:53:26.212Z,966.89
2019-02-14T05:55:52.522Z,966.93
2019-02-14T05:58:18.898Z,966.96
2019-02-14T06:00:45.224Z,966.90
2019-02-14T06:03:11.537Z,966.96
2019-02-14T06:05:37.846Z,966.95
2019-02-14T06:08:04.154Z,966.89
2019-02-14T06:10:30.462Z,966.89
2019-02-14T06:12:56.778Z,966.86
2019-02-14T06:15:23.085Z,966.94
2019-02-14T06:17:49.389Z,966.89
2019-02-14T06:20:15.707Z,966.87
2019-02-14T06:22:42.017Z,966.94
2019-02-14T06:25:08.329Z,966.92
2019-02-14T06:27:34.643Z,966.87
2019-02-14T06:30:00.947Z,966.89
2019-02-14T06:32:27.254Z,966.91
2019-02-14T06:34:53.572Z,966.90
2019-02-14T06:37:19.873Z,966.84
2019-02-14T06:39:46.189Z,966.89
2019-02-14T06:42:12.496Z,966.90
2019-02-14T06:44:38.803Z,966.88
2019-02-14T06:47:05.127Z,966.88
2019-02-14T06:49:31.425Z,966.95
2019-02-14T06:51:57.731Z,966.95
2019-02-14T06:54:24.041Z,966.95
2019-02-14T06:56:50.364Z,966.91
2019-02-14T06:59:16.672Z,966.86
2019-02-14T07:01:42.985Z,966.81
2019-02-14T07:04:09.294Z,966.80
2019-02-14T07:06:35.603Z,966.67
2019-02-14T07:09:01.913Z,966.73
2019-02-14T07:11:28.231Z,966.64
2019-02-14T07:13:54.555Z,966.67
2019-02-14T07:16:20.860Z,966.65
2019-02-14T07:18:47.200Z,966.63
2019-02-14T07:21:13.487Z,966.52
2019-02-14T07:23:39.828Z,966.48
2019-02-14T07:26:06.149Z,966.40
2019-02-14T07:28:34.344Z,966.35
2019-02-14T07:30:58.787Z,966.40
2019-02-14T07:33:25.106Z,966.37
2019-02-14T07:35:51.445Z,966.28
2019-02-14T07:38:17.755Z,966.24
2019-02-14T07:40:44.094Z,966.22
2019-02-14T07:43:10.415Z,966.11
2019-02-14T07:45:36.726Z,966.15
2019-02-14T07:48:03.035Z,966.18
2019-02-14T07:50:29.343Z,966.14
2019-02-14T07:52:55.670Z,966.10
2019-02-14T07:55:22.218Z,966.10
2019-02-14T07:57:48.519Z,966.03
2019-02-14T08:00:14.829Z,966.15
2019-02-14T08:02:41.172Z,966.00
2019-02-14T08:05:07.453Z,966.05
2019-02-14T08:07:35.898Z,965.99
2019-02-14T08:10:00.180Z,965.99
2019-02-14T08:12:26.401Z,965.99
2019-02-14T08:14:52.707Z,965.98
2019-02-14T08:17:19.021Z,965.90
2019-02-14T08:19:45.332Z,965.91
2019-02-14T08:22:11.644Z,965.83
2019-02-14T08:24:37.959Z,965.90
2019-02-14T08:27:04.307Z,965.92
2019-02-14T08:29:30.626Z,965.96
2019-02-14T08:31:56.941Z,966.00
2019-02-14T08:34:23.255Z,965.91
2019-02-14T08:36:49.566Z,965.89
2019-02-14T08:39:15.930Z,965.83
2019-02-14T08:41:42.220Z,965.85
2019-02-14T08:44:08.531Z,965.90
2019-02-14T08:46:34.836Z,965.86
2019-02-14T08:49:01.146Z,965.75
2019-02-14T08:51:27.488Z,965.79
2019-02-14T08:53:53.803Z,965.74
2019-02-14T08:56:20.117Z,965.73
2019-02-14T08:58:46.497Z,965.72
2019-02-14T09:01:12.745Z,965.64
2019-02-14T09:03:39.224Z,965.63
2019-02-14T09:06:05.534Z,965.59
2019-02-14T09:08:31.852Z,965.70
2019-02-14T09:10:58.172Z,965.56
2019-02-14T09:13:24.485Z,965.55
2019-02-14T09:15:50.824Z,965.43
2019-02-14T09:18:17.129Z,965.44
2019-02-14T09:20:43.467Z,965.47
2019-02-14T09:23:09.767Z,965.36
2019-02-14T09:25:36.255Z,965.42
2019-02-14T09:28:02.552Z,965.36
2019-02-14T09:30:28.852Z,965.30
2019-02-14T09:32:55.192Z,965.27
2019-02-14T09:35:21.498Z,965.23
2019-02-14T09:37:47.803Z,965.16
2019-02-14T09:40:14.107Z,965.14
2019-02-14T09:42:40.422Z,965.09
2019-02-14T09:45:06.737Z,965.06
2019-02-14T09:47:33.056Z,965.11
2019-02-14T09:49:59.360Z,965.03
2019-02-14T09:52:25.667Z,964.96
2019-02-14T09:54:51.984Z,964.90
2019-02-14T09:57:18.302Z,964.86
2019-02-14T09:59:44.626Z,964.80
2019-02-14T10:02:10.967Z,964.72
2019-02-14T10:04:37.248Z,964.77
2019-02-14T10:07:03.562Z,964.74
2019-02-14T10:09:29.929Z,964.67
2019-02-14T10:11:56.182Z,964.53
2019-02-14T10:14:22.503Z,964.56
2019-02-14T10:16:48.818Z,964.56
2019-02-14T10:19:15.136Z,964.36
2019-02-14T10:21:41.447Z,964.39
2019-02-14T10:24:07.762Z,964.33
2019-02-14T10:26:34.069Z,964.30
2019-02-14T10:29:00.396Z,964.22
2019-02-14T10:31:26.706Z,964.20
2019-02-14T10:33:53.012Z,964.08
2019-02-14T10:36:19.320Z,964.01
2019-02-14T10:38:45.626Z,963.92
2019-02-14T10:41:11.949Z,963.90
2019-02-14T10:43:38.262Z,963.89
2019-02-14T10:46:04.588Z,963.84
2019-02-14T10:48:30.916Z,963.80
2019-02-14T10:50:57.218Z,963.78
2019-02-14T10:53:23.520Z,963.85
2019-02-14T10:55:49.839Z,963.87
2019-02-14T10:58:16.184Z,963.85
2019-02-14T11:00:42.466Z,963.75
2019-02-14T11:03:08.774Z,963.77
2019-02-14T11:05:35.573Z,963.73
2019-02-14T11:08:01.398Z,963.65
2019-02-14T11:10:27.712Z,963.65
2019-02-14T11:12:54.028Z,963.74
2019-02-14T11:15:20.350Z,963.66
2019-02-14T11:17:48.696Z,963.72
2019-02-14T11:20:12.970Z,963.67
2019-02-14T11:22:39.285Z,963.62
2019-02-14T11:25:05.597Z,963.60
2019-02-14T11:27:31.909Z,963.56
2019-02-14T11:29:58.257Z,963.59
2019-02-14T11:32:24.524Z,963.51
2019-02-14T11:34:50.833Z,963.61
2019-02-14T11:37:17.142Z,963.57
2019-02-14T11:39:43.457Z,963.53
2019-02-14T11:42:09.781Z,963.47
2019-02-14T11:44:39.875Z,963.37
2019-02-14T11:47:02.399Z,963.35
2019-02-14T11:49:28.705Z,963.34
2019-02-14T11:51:55.024Z,963.35
2019-02-14T11:54:21.323Z,963.31
2019-02-14T11:56:47.637Z,963.26
2019-02-14T11:59:13.942Z,963.24
2019-02-14T12:01:40.255Z,963.19
2019-02-14T12:04:06.559Z,963.11
2019-02-14T12:06:32.962Z,963.10
2019-02-14T12:09:00.489Z,963.21
2019-02-14T12:11:25.478Z,963.03
2019-02-14T12:13:51.784Z,962.99
2019-02-14T12:16:18.094Z,963.04
2019-02-14T12:18:44.423Z,963.01
2019-02-14T12:21:10.733Z,963.03
2019-02-14T12:23:37.040Z,963.03
2019-02-14T12:26:03.349Z,962.96
2019-02-14T12:28:29.659Z,963.11
2019-02-14T12:30:55.991Z,963.09
2019-02-14T12:33:22.300Z,963.02
2019-02-14T12:35:48.602Z,963.02
2019-02-14T12:38:14.913Z,963.06
2019-02-14T12:40:41.228Z,963.03
2019-02-14T12:43:07.536Z,963.06
2019-02-14T12:45:33.872Z,963.04
2019-02-14T12:48:00.185Z,963.06
2019-02-14T12:50:26.487Z,963.03
2019-02-14T12:52:52.837Z,962.96
2019-02-14T12:55:19.138Z,963.04
2019-02-14T12:57:45.443Z,963.00
2019-02-14T13:00:11.754Z,962.95
2019-02-14T13:02:38.061Z,963.00
2019-02-14T13:05:04.364Z,963.06
2019-02-14T13:07:30.674Z,962.90
2019-02-14T13:09:56.982Z,962.88
2019-02-14T13:12:23.293Z,962.88
2019-02-14T13:14:49.594Z,962.87
2019-02-14T13:17:15.901Z,962.92
2019-02-14T13:19:42.203Z,962.93
2019-02-14T13:22:08.523Z,962.85
2019-02-14T13:24:34.822Z,962.76
2019-02-14T13:27:01.128Z,962.84
2019-02-14T13:29:27.431Z,962.88
2019-02-14T13:31:53.740Z,962.87
2019-02-14T13:34:20.048Z,962.78
2019-02-14T13:36:46.357Z,962.90
2019-02-14T13:39:12.668Z,962.88
2019-02-14T13:41:38.982Z,962.91
2019-02-14T13:44:05.290Z,962.90
2019-02-14T13:46:31.604Z,963.00
2019-02-14T13:48:57.960Z,962.99
2019-02-14T13:51:24.235Z,963.03
2019-02-14T13:53:50.541Z,962.88
2019-02-14T13:56:16.871Z,962.85
2019-02-14T13:58:43.177Z,962.88
2019-02-14T14:01:09.485Z,962.83
2019-02-14T14:03:35.790Z,962.85
2019-02-14T14:06:02.092Z,962.87
2019-02-14T14:08:28.405Z,962.80
2019-02-14T14:10:54.709Z,962.73
2019-02-14T14:13:21.046Z,962.80
2019-02-14T14:15:47.351Z,962.81
2019-02-14T14:18:13.657Z,962.73
2019-02-14T14:20:39.962Z,962.78
2019-02-14T14:23:06.274Z,962.66
2019-02-14T14:25:32.594Z,962.72
2019-02-14T14:27:58.906Z,962.68
2019-02-14T14:30:25.209Z,962.67
2019-02-14T14:32:51.516Z,962.67
2019-02-14T14:35:17.821Z,962.68
2019-02-14T14:37:44.136Z,962.73
2019-02-14T14:40:10.444Z,962.72
2019-02-14T14:42:36.752Z,962.59
2019-02-14T14:45:03.060Z,962.73
2019-02-14T14:47:29.367Z,962.67
2019-02-14T14:49:55.681Z,962.80
2019-02-14T14:52:21.992Z,962.75
2019-02-14T14:54:48.300Z,962.88
2019-02-14T14:57:14.610Z,962.92
2019-02-14T14:59:40.939Z,962.84
2019-02-14T15:02:07.244Z,962.92
2019-02-14T15:04:33.547Z,962.92
2019-02-14T15:06:59.854Z,962.91
2019-02-14T15:09:26.159Z,962.97
2019-02-14T15:11:52.458Z,962.91
2019-02-14T15:14:18.768Z,962.86
2019-02-14T15:16:45.079Z,962.95
2019-02-14T15:19:11.378Z,962.84
2019-02-14T15:21:37.698Z,962.99
2019-02-14T15:24:04.014Z,963.00
2019-02-14T15:26:30.321Z,963.03
2019-02-14T15:28:56.624Z,963.03
2019-02-14T15:31:22.927Z,963.03
2019-02-14T15:33:49.239Z,963.00
2019-02-14T15:36:15.538Z,962.95
2019-02-14T15:38:41.847Z,963.00
2019-02-14T15:41:08.151Z,963.12
2019-02-14T15:43:34.456Z,963.11
2019-02-14T15:46:00.815Z,963.10
2019-02-14T15:48:27.126Z,963.10
2019-02-14T15:50:54.359Z,963.14
2019-02-14T15:53:21.389Z,963.16
2019-02-14T15:55:46.037Z,963.07
2019-02-14T15:58:12.342Z,963.17
2019-02-14T16:00:38.651Z,963.16
2019-02-14T16:03:04.967Z,963.13
2019-02-14T16:05:31.274Z,963.12
2019-02-14T16:07:57.584Z,963.16
2019-02-14T16:10:25.534Z,963.02
2019-02-14T16:12:50.194Z,962.99
2019-02-14T16:15:16.502Z,963.07
2019-02-14T16:17:42.817Z,963.16
2019-02-14T16:20:11.609Z,963.10
2019-02-14T16:22:39.634Z,963.21
2019-02-14T16:25:04.688Z,963.22
2019-02-14T16:27:30.481Z,963.22
2019-02-14T16:29:56.789Z,963.25
2019-02-14T16:32:23.091Z,963.17
2019-02-14T16:34:49.402Z,963.23
2019-02-14T16:37:15.707Z,963.28
2019-02-14T16:39:51.306Z,963.20
2019-02-14T16:42:08.375Z,963.13
2019-02-14T16:44:34.642Z,963.17
2019-02-14T16:47:00.958Z,963.31
2019-02-14T16:49:27.253Z,963.31
2019-02-14T16:51:53.555Z,963.26
2019-02-14T16:54:19.869Z,963.20
2019-02-14T16:56:46.168Z,963.21
2019-02-14T16:59:12.477Z,963.13
2019-02-14T17:01:38.790Z,963.15
2019-02-14T17:04:05.109Z,963.12
2019-02-14T17:06:31.403Z,963.22
2019-02-14T17:08:57.708Z,963.16
2019-02-14T17:11:24.012Z,963.07
2019-02-14T17:13:50.318Z,963.15
2019-02-14T17:16:16.634Z,963.06
2019-02-14T17:18:42.936Z,963.07
2019-02-14T17:21:09.247Z,963.07
2019-02-14T17:23:35.556Z,963.09
2019-02-14T17:26:01.874Z,963.16
2019-02-14T17:28:28.178Z,963.19
2019-02-14T17:30:54.483Z,963.19
2019-02-14T17:33:20.790Z,963.23
2019-02-14T17:35:47.097Z,963.27
2019-02-14T17:38:13.403Z,963.26
2019-02-14T17:40:45.821Z,963.13
2019-02-14T17:43:06.038Z,963.09
2019-02-14T17:45:32.342Z,963.09
2019-02-14T17:47:58.649Z,963.07
2019-02-14T17:50:24.954Z,962.97
2019-02-14T17:52:51.256Z,963.04
2019-02-14T17:55:17.567Z,962.98
2019-02-14T17:57:43.872Z,963.00
2019-02-14T18:00:10.174Z,963.01
2019-02-14T18:02:36.482Z,963.00
2019-02-14T18:05:02.786Z,962.95
2019-02-14T18:07:29.151Z,962.89
2019-02-14T18:09:55.444Z,962.87
2019-02-14T18:12:21.756Z,962.77
2019-02-14T18:14:48.066Z,962.86
2019-02-14T18:17:14.409Z,962.85
2019-02-14T18:19:40.712Z,962.92
2019-02-14T18:22:07.056Z,962.90
2019-02-14T18:24:36.375Z,962.95
2019-02-14T18:27:02.711Z,962.87
2019-02-14T18:29:30.112Z,962.88
2019-02-14T18:31:56.419Z,962.90
2019-02-14T18:34:22.718Z,962.91
2019-02-14T18:36:49.027Z,962.87
2019-02-14T18:39:15.341Z,962.94
2019-02-14T18:41:42.511Z,962.92
2019-02-14T18:44:08.828Z,962.91
2019-02-14T18:46:35.125Z,962.92
2019-02-14T18:49:01.444Z,962.95
2019-02-14T18:51:27.761Z,962.89
2019-02-14T18:53:54.054Z,962.91
2019-02-14T18:56:20.361Z,962.91
2019-02-14T18:58:46.714Z,962.87
2019-02-14T19:01:12.983Z,962.90
2019-02-14T19:03:39.629Z,962.93
2019-02-14T19:06:05.976Z,962.86
2019-02-14T19:08:32.281Z,962.87
2019-02-14T19:10:58.890Z,962.81
2019-02-14T19:13:25.203Z,962.81
2019-02-14T19:15:51.528Z,962.72
2019-02-14T19:18:17.843Z,962.72
2019-02-14T19:20:44.151Z,962.76
2019-02-14T19:23:10.462Z,962.77
2019-02-14T19:25:36.784Z,962.76
2019-02-14T19:28:03.109Z,962.77
2019-02-14T19:30:29.430Z,962.77
2019-02-14T19:32:55.749Z,962.75
2019-02-14T19:35:23.337Z,962.73
2019-02-14T19:37:48.367Z,962.73
2019-02-14T19:40:14.688Z,962.64
2019-02-14T19:42:40.990Z,962.64
2019-02-14T19:45:07.303Z,962.60
2019-02-14T19:47:33.606Z,962.56
2019-02-14T19:49:59.961Z,962.55
2019-02-14T19:52:26.213Z,962.54
2019-02-14T19:54:52.519Z,962.38
2019-02-14T19:57:20.028Z,962.35
2019-02-14T19:59:45.132Z,962.36
2019-02-14T20:02:11.430Z,962.42
2019-02-14T20:04:37.741Z,962.38
2019-02-14T20:07:04.054Z,962.46
2019-02-14T20:09:30.360Z,962.53
2019-02-14T20:11:56.678Z,962.61
2019-02-14T20:14:22.984Z,962.61
2019-02-14T20:16:49.440Z,962.53
2019-02-14T20:19:15.621Z,962.57
2019-02-14T20:21:41.929Z,962.56
2019-02-14T20:24:08.235Z,962.62
2019-02-14T20:26:34.552Z,962.59
2019-02-14T20:29:00.882Z,962.60
2019-02-14T20:31:27.235Z,962.62
2019-02-14T20:33:53.534Z,962.64
2019-02-14T20:36:19.859Z,962.70
2019-02-14T20:38:46.205Z,962.73
2019-02-14T20:41:12.466Z,962.74
2019-02-14T20:43:38.792Z,962.75
2019-02-14T20:46:05.128Z,962.72
2019-02-14T20:48:31.434Z,962.75
2019-02-14T20:50:57.754Z,962.75
2019-02-14T20:53:24.069Z,962.75
2019-02-14T20:55:50.385Z,962.67
2019-02-14T20:58:16.701Z,962.63
2019-02-14T21:00:43.005Z,962.55
2019-02-14T21:03:09.350Z,962.58
2019-02-14T21:05:35.635Z,962.46
2019-02-14T21:08:01.944Z,962.39
2019-02-14T21:10:28.285Z,962.36
2019-02-14T21:12:54.610Z,962.21
2019-02-14T21:15:20.912Z,962.33
2019-02-14T21:17:47.218Z,962.38
2019-02-14T21:20:13.527Z,962.28
2019-02-14T21:22:39.836Z,962.35
2019-02-14T21:25:06.152Z,962.36
2019-02-14T21:27:35.179Z,962.33
2019-02-14T21:29:58.774Z,962.26
2019-02-14T21:32:25.094Z,962.27
2019-02-14T21:34:51.426Z,962.29
2019-02-14T21:37:17.750Z,962.33
2019-02-14T21:39:44.037Z,962.26
2019-02-14T21:42:19.369Z,962.30
2019-02-14T21:44:36.810Z,962.33
2019-02-14T21:47:03.097Z,962.25
2019-02-14T21:49:29.394Z,962.27
2019-02-14T21:51:55.691Z,962.30
2019-02-14T21:54:22.011Z,962.26
2019-02-14T21:56:48.335Z,962.27
2019-02-14T21:59:14.625Z,962.23
2019-02-14T22:01:40.968Z,962.21
2019-02-14T22:04:07.247Z,962.17
2019-02-14T22:06:33.558Z,962.14
2019-02-14T22:08:59.879Z,962.08
2019-02-14T22:11:26.197Z,962.03
2019-02-14T22:13:52.514Z,962.02
2019-02-14T22:16:18.813Z,962.05
2019-02-14T22:18:45.747Z,962.03
2019-02-14T22:21:12.053Z,962.05
2019-02-14T22:23:38.374Z,962.07
2019-02-14T22:26:04.699Z,962.07
2019-02-14T22:28:31.025Z,962.08
2019-02-14T22:30:57.382Z,962.08
2019-02-14T22:33:23.699Z,962.12
2019-02-14T22:35:50.017Z,962.08
2019-02-14T22:38:16.325Z,962.05
2019-02-14T22:40:42.638Z,962.04
2019-02-14T22:43:08.939Z,962.07
2019-02-14T22:45:35.250Z,962.08
2019-02-14T22:48:01.555Z,962.09
2019-02-14T22:50:27.869Z,962.10
2019-02-14T22:52:54.181Z,962.15
2019-02-14T22:55:20.492Z,962.06
2019-02-14T22:57:46.799Z,962.05
2019-02-14T23:00:13.113Z,962.02
2019-02-14T23:02:39.419Z,962.05
2019-02-14T23:05:05.725Z,962.06
2019-02-14T23:07:32.032Z,961.93
2019-02-14T23:09:58.346Z,961.98
2019-02-14T23:12:24.656Z,961.97
2019-02-14T23:14:50.962Z,961.94
2019-02-14T23:17:17.269Z,961.98
2019-02-14T23:19:43.579Z,961.98
2019-02-14T23:22:09.893Z,962.03
2019-02-14T23:24:36.198Z,962.11
2019-02-14T23:27:02.509Z,962.09
2019-02-14T23:29:28.812Z,962.09
2019-02-14T23:31:55.122Z,962.07
2019-02-14T23:34:21.429Z,962.08
2019-02-14T23:36:47.741Z,962.08
2019-02-14T23:39:14.047Z,962.02
2019-02-14T23:41:40.351Z,961.99
2019-02-14T23:44:06.663Z,961.98
2019-02-14T23:46:32.977Z,962.07
2019-02-14T23:48:59.277Z,962.01
2019-02-14T23:51:25.592Z,961.97
2019-02-14T23:53:51.892Z,962.07
2019-02-14T23:56:18.200Z,961.96
2019-02-14T23:58:44.508Z,961.97
